Time;durP1;ratioP1;P1;durP2;ratioP2;P2;SDS_P1;SDS_P2;PMS_P1;PMS_P2;Temp;Humidity;BMP_temperature;BMP_pressure;BME280_temperature;BME280_humidity;BME280_pressure;Samples;Min_cycle;Max_cycle;Signal;HPM_P1;HPM_P2
2021/04/01 00:00:22;;;;;;;43.33;31.33;;;16.00;85.30;;;;;;5083709;28;20204;-75
2021/04/01 00:02:49;;;;;;;47.55;33.55;;;16.10;85.40;;;;;;5091982;28;20207;-74
2021/04/01 00:05:16;;;;;;;49.97;31.00;;;16.10;85.60;;;;;;5089755;28;20697;-74
2021/04/01 00:07:44;;;;;;;46.17;32.00;;;16.10;86.00;;;;;;5092022;28;20205;-74
2021/04/01 00:10:16;;;;;;;43.60;32.13;;;16.10;86.20;;;;;;5081516;28;20201;-74
2021/04/01 00:12:43;;;;;;;40.97;29.48;;;16.10;86.10;;;;;;5086459;28;20208;-74
2021/04/01 00:15:12;;;;;;;45.35;32.58;;;16.00;86.00;;;;;;5085659;28;20208;-74
2021/04/01 00:17:39;;;;;;;47.83;33.70;;;16.00;86.20;;;;;;5093282;28;20222;-75
2021/04/01 00:20:09;;;;;;;42.65;31.55;;;16.00;86.10;;;;;;5081931;28;20568;-75
2021/04/01 00:22:36;;;;;;;46.97;31.98;;;16.00;86.60;;;;;;5078768;28;20596;-75
2021/04/01 00:25:05;;;;;;;48.38;33.58;;;16.00;86.70;;;;;;5089755;28;20666;-75
2021/04/01 00:27:31;;;;;;;51.85;33.85;;;16.00;86.90;;;;;;5088726;28;20199;-75
2021/04/01 00:29:58;;;;;;;49.03;33.50;;;16.00;87.00;;;;;;5083158;28;20203;-75
2021/04/01 00:32:25;;;;;;;52.10;35.55;;;15.90;88.40;;;;;;5083133;28;20204;-74
2021/04/01 00:34:52;;;;;;;49.38;33.88;;;15.90;88.50;;;;;;5084679;28;20662;-73
2021/04/01 00:37:18;;;;;;;48.42;36.28;;;15.90;89.20;;;;;;5089263;28;20222;-75
2021/04/01 00:39:45;;;;;;;51.47;35.95;;;16.00;89.90;;;;;;5075068;28;20200;-75
2021/04/01 00:42:16;;;;;;;46.22;33.22;;;16.00;90.10;;;;;;5089744;28;20203;-76
2021/04/01 00:44:42;;;;;;;49.00;33.50;;;16.00;90.00;;;;;;5097432;28;20579;-76
2021/04/01 00:47:09;;;;;;;53.95;36.15;;;15.80;90.00;;;;;;5084539;28;20226;-75
2021/04/01 00:49:37;;;;;;;48.60;33.80;;;15.80;90.20;;;;;;5087427;28;20217;-74
2021/04/01 00:52:05;;;;;;;45.67;33.67;;;15.70;90.30;;;;;;5087527;28;20194;-75
2021/04/01 00:54:32;;;;;;;43.85;32.50;;;15.60;90.40;;;;;;5077915;28;20199;-73
2021/04/01 00:56:58;;;;;;;47.35;35.85;;;15.50;90.80;;;;;;5086932;28;20234;-76
2021/04/01 00:59:28;;;;;;;41.13;31.00;;;15.40;90.90;;;;;;5084571;28;20213;-76
2021/04/01 01:01:59;;;;;;;45.00;30.58;;;15.40;91.10;;;;;;5087015;28;20721;-75
2021/04/01 01:04:26;;;;;;;47.40;33.83;;;15.40;91.20;;;;;;5083488;28;20209;-75
2021/04/01 01:06:53;;;;;;;44.65;31.13;;;15.40;91.40;;;;;;5090381;28;20218;-75
2021/04/01 01:09:21;;;;;;;46.47;32.10;;;15.50;91.40;;;;;;5084204;28;20650;-73
2021/04/01 01:11:48;;;;;;;52.72;34.75;;;15.50;91.50;;;;;;5086102;28;20203;-74
2021/04/01 01:14:14;;;;;;;45.70;31.83;;;15.20;91.80;;;;;;5081588;28;20199;-74
2021/04/01 01:16:43;;;;;;;47.97;35.47;;;15.00;92.30;;;;;;5073603;28;20711;-74
2021/04/01 01:19:11;;;;;;;49.42;33.03;;;14.90;92.80;;;;;;5081849;28;20218;-76
2021/04/01 01:21:38;;;;;;;49.75;33.65;;;14.80;92.90;;;;;;5089909;28;20230;-75
2021/04/01 01:24:12;;;;;;;49.08;35.15;;;14.90;92.90;;;;;;5084541;28;20206;-74
2021/04/01 01:30:21;;;;;;;43.55;32.45;;;15.10;92.80;;;;;;5094761;28;20589;-75
2021/04/01 01:32:56;;;;;;;46.80;31.65;;;15.20;92.40;;;;;;5091851;28;20199;-75
2021/04/01 01:35:25;;;;;;;43.70;32.33;;;15.30;92.30;;;;;;5090154;28;20233;-75
2021/04/01 01:37:54;;;;;;;45.88;32.15;;;15.30;92.10;;;;;;5088268;28;20316;-75
2021/04/01 01:40:22;;;;;;;45.67;30.95;;;15.40;92.00;;;;;;5084209;28;20207;-74
2021/04/01 01:42:50;;;;;;;44.88;31.00;;;15.40;91.70;;;;;;5087095;28;20209;-73
2021/04/01 01:45:17;;;;;;;44.53;30.35;;;15.50;91.60;;;;;;5085032;28;20230;-73
2021/04/01 01:47:44;;;;;;;51.40;35.08;;;15.50;91.70;;;;;;5093952;28;20199;-74
2021/04/01 01:50:12;;;;;;;51.55;34.50;;;15.40;91.80;;;;;;5090206;28;20255;-76
2021/04/01 01:52:39;;;;;;;45.25;32.67;;;15.30;92.00;;;;;;5079077;28;20568;-74
2021/04/01 01:55:07;;;;;;;48.58;33.53;;;15.40;92.00;;;;;;5077183;28;20634;-74
2021/04/01 01:57:36;;;;;;;51.13;35.70;;;15.30;91.90;;;;;;5085101;28;20234;-72
2021/04/01 02:00:06;;;;;;;49.05;35.22;;;15.30;91.90;;;;;;5091427;28;20206;-76
2021/04/01 02:02:33;;;;;;;54.28;38.60;;;15.20;91.50;;;;;;5085725;28;20210;-74
2021/04/01 02:05:00;;;;;;;53.42;37.17;;;15.20;91.00;;;;;;5075890;28;20203;-76
2021/04/01 02:07:30;;;;;;;45.35;33.92;;;15.10;91.00;;;;;;5097654;28;20201;-76
2021/04/01 02:09:56;;;;;;;51.13;36.63;;;15.20;91.10;;;;;;5084120;28;20214;-75
2021/04/01 02:12:23;;;;;;;46.58;35.95;;;15.20;90.70;;;;;;5086659;28;20198;-74
2021/04/01 02:14:51;;;;;;;48.78;34.17;;;15.30;90.70;;;;;;5092861;28;20672;-74
2021/04/01 02:17:23;;;;;;;54.55;37.80;;;15.30;90.70;;;;;;5084635;28;20246;-75
2021/04/01 02:19:56;;;;;;;48.33;35.63;;;15.30;90.70;;;;;;5080243;28;20683;-74
2021/04/01 02:22:23;;;;;;;56.67;37.22;;;15.30;90.50;;;;;;5067396;28;20593;-76
2021/04/01 02:24:50;;;;;;;54.35;38.88;;;15.30;90.50;;;;;;5091074;28;20202;-75
2021/04/01 02:27:19;;;;;;;60.97;37.60;;;15.30;90.60;;;;;;5079850;28;20256;-76
2021/04/01 02:29:47;;;;;;;53.75;39.88;;;15.30;90.50;;;;;;5092329;28;20316;-75
2021/04/01 02:32:15;;;;;;;53.50;39.45;;;15.30;90.60;;;;;;5087623;28;20237;-74
2021/04/01 02:34:42;;;;;;;55.25;38.70;;;15.30;90.50;;;;;;5072901;28;20268;-75
2021/04/01 02:37:08;;;;;;;64.25;41.28;;;15.30;90.50;;;;;;5077550;28;20620;-75
2021/04/01 02:39:35;;;;;;;63.53;40.78;;;15.30;90.40;;;;;;5074168;28;20207;-75
2021/04/01 02:42:02;;;;;;;64.82;42.55;;;15.40;90.30;;;;;;5077859;28;20618;-75
2021/04/01 02:44:29;;;;;;;59.55;40.45;;;15.40;90.20;;;;;;5091708;28;20687;-76
2021/04/01 02:46:56;;;;;;;60.17;40.25;;;15.40;90.10;;;;;;5084254;28;20313;-75
2021/04/01 02:49:23;;;;;;;56.20;37.53;;;15.40;90.10;;;;;;5095147;28;20606;-72
2021/04/01 02:51:50;;;;;;;60.10;40.13;;;15.40;90.00;;;;;;5080713;28;20332;-75
2021/04/01 02:54:17;;;;;;;56.85;38.92;;;15.30;90.10;;;;;;5081059;28;20197;-75
2021/04/01 02:56:44;;;;;;;64.50;41.90;;;15.30;90.40;;;;;;5081040;28;20317;-75
2021/04/01 02:59:11;;;;;;;59.53;41.90;;;15.30;90.20;;;;;;5082505;28;20211;-76
2021/04/01 03:01:37;;;;;;;54.28;36.55;;;15.30;90.00;;;;;;5088339;28;20625;-75
2021/04/01 03:04:07;;;;;;;53.10;38.25;;;15.30;90.00;;;;;;5087610;28;20206;-73
2021/04/01 03:06:35;;;;;;;53.33;37.10;;;15.40;89.90;;;;;;5082443;28;20241;-74
2021/04/01 03:09:02;;;;;;;58.20;40.53;;;15.50;89.10;;;;;;5084203;28;20326;-75
2021/04/01 03:11:29;;;;;;;55.97;38.17;;;15.40;89.00;;;;;;5078782;28;20198;-75
2021/04/01 03:13:55;;;;;;;63.10;42.70;;;15.40;90.00;;;;;;5078600;28;20202;-73
2021/04/01 03:16:22;;;;;;;60.53;38.92;;;15.20;90.50;;;;;;5085477;28;20236;-74
2021/04/01 03:18:49;;;;;;;50.90;36.90;;;15.00;90.90;;;;;;5086528;28;20222;-75
2021/04/01 03:21:15;;;;;;;54.42;38.78;;;15.10;90.60;;;;;;5082805;28;20214;-74
2021/04/01 03:23:43;;;;;;;51.58;35.50;;;15.10;91.00;;;;;;5084873;28;20735;-74
2021/04/01 03:26:10;;;;;;;54.75;37.40;;;15.20;90.80;;;;;;5078046;28;20754;-73
2021/04/01 03:28:37;;;;;;;58.50;39.15;;;15.20;90.90;;;;;;5085881;28;20202;-76
2021/04/01 03:31:03;;;;;;;56.90;38.13;;;15.20;90.80;;;;;;5088199;28;20652;-74
2021/04/01 03:33:31;;;;;;;51.90;36.78;;;15.20;90.70;;;;;;5088009;28;20211;-77
2021/04/01 03:35:59;;;;;;;53.78;37.28;;;15.20;90.60;;;;;;5093174;28;20218;-74
2021/04/01 03:38:27;;;;;;;60.00;37.75;;;15.20;90.50;;;;;;5094596;28;20223;-75
2021/04/01 03:40:55;;;;;;;64.47;37.30;;;15.30;90.60;;;;;;5091054;28;20228;-75
2021/04/01 03:43:22;;;;;;;64.43;36.88;;;15.30;90.50;;;;;;5085070;28;20202;-75
2021/04/01 03:45:51;;;;;;;58.63;39.83;;;15.30;90.70;;;;;;5085855;28;20656;-74
2021/04/01 03:48:18;;;;;;;62.97;41.20;;;15.20;91.10;;;;;;5087095;28;20191;-73
2021/04/01 03:50:45;;;;;;;56.95;39.75;;;15.10;91.00;;;;;;5094416;28;20209;-76
2021/04/01 03:53:12;;;;;;;78.15;42.25;;;15.00;91.10;;;;;;5098181;28;20651;-76
2021/04/01 03:55:40;;;;;;;74.90;43.35;;;15.00;91.10;;;;;;5091270;28;20630;-75
2021/04/01 04:00:56;;;;;;;67.57;41.80;;;14.90;90.90;;;;;;5076311;28;20195;-74
2021/04/01 04:03:35;;;;;;;66.43;44.50;;;15.00;90.70;;;;;;5089228;28;20210;-75
2021/04/01 04:06:10;;;;;;;61.45;41.63;;;14.90;90.60;;;;;;5088855;28;20272;-76
2021/04/01 04:08:50;;;;;;;67.15;42.83;;;14.90;90.20;;;;;;5064961;28;20229;-74
2021/04/01 04:11:24;;;;;;;67.78;43.33;;;14.90;89.50;;;;;;5078084;28;20688;-75
2021/04/01 04:13:55;;;;;;;69.43;43.78;;;14.90;89.30;;;;;;5071898;28;20231;-74
2021/04/01 04:16:23;;;;;;;74.65;43.45;;;14.90;88.20;;;;;;5089930;28;20214;-74
2021/04/01 04:18:50;;;;;;;74.30;44.22;;;14.80;87.10;;;;;;5094948;28;20222;-75
2021/04/01 04:21:17;;;;;;;73.93;43.95;;;14.90;86.90;;;;;;5089908;28;20214;-73
2021/04/01 04:23:46;;;;;;;70.10;42.53;;;14.80;86.00;;;;;;5087562;28;20215;-75
2021/04/01 04:26:13;;;;;;;67.70;42.10;;;14.90;85.40;;;;;;5081614;28;20275;-74
2021/04/01 04:28:40;;;;;;;77.38;47.30;;;14.90;83.50;;;;;;5083063;28;20231;-76
2021/04/01 04:31:08;;;;;;;65.15;44.42;;;14.90;83.10;;;;;;5085731;28;20195;-75
2021/04/01 04:33:38;;;;;;;66.00;43.80;;;14.80;82.50;;;;;;5085896;28;20748;-74
2021/04/01 04:36:06;;;;;;;69.10;44.47;;;14.80;81.40;;;;;;5091828;28;20218;-74
2021/04/01 04:38:32;;;;;;;84.43;47.95;;;14.80;79.80;;;;;;5087017;28;20214;-74
2021/04/01 04:40:59;;;;;;;74.25;45.25;;;14.80;78.90;;;;;;5085528;28;20241;-74
2021/04/01 04:43:28;;;;;;;79.25;48.53;;;14.70;79.00;;;;;;5079700;28;20728;-74
2021/04/01 04:45:56;;;;;;;81.82;47.22;;;14.60;78.70;;;;;;5085447;28;20223;-76
2021/04/01 04:48:24;;;;;;;76.53;49.00;;;14.60;78.60;;;;;;5076762;28;20218;-75
2021/04/01 04:50:51;;;;;;;82.10;48.38;;;14.50;77.60;;;;;;5088211;28;20256;-75
2021/04/01 04:53:18;;;;;;;78.13;49.10;;;14.50;78.00;;;;;;5084419;28;20229;-75
2021/04/01 04:55:58;;;;;;;69.80;46.97;;;14.50;77.80;;;;;;5088729;28;20280;-74
2021/04/01 04:58:29;;;;;;;84.82;48.85;;;14.50;77.50;;;;;;5056378;28;20307;-74
2021/04/01 05:01:04;;;;;;;74.18;49.20;;;14.50;77.50;;;;;;5085222;28;20610;-74
2021/04/01 05:06:32;;;;;;;84.65;50.65;;;14.40;77.40;;;;;;5075786;28;20229;-74
2021/04/01 05:08:59;;;;;;;82.43;51.35;;;14.30;77.70;;;;;;5083884;28;20244;-74
2021/04/01 05:11:26;;;;;;;79.22;49.40;;;14.40;78.10;;;;;;5088550;28;20203;-74
2021/04/01 05:13:52;;;;;;;86.10;51.97;;;14.40;77.70;;;;;;5087802;28;20232;-76
2021/04/01 05:16:19;;;;;;;81.47;53.20;;;14.50;77.70;;;;;;5092972;28;20238;-74
2021/04/01 05:18:48;;;;;;;81.03;49.97;;;14.40;77.50;;;;;;5091465;28;20230;-74
2021/04/01 05:21:16;;;;;;;81.40;50.85;;;14.40;78.30;;;;;;5074302;28;20218;-77
2021/04/01 05:23:45;;;;;;;84.57;54.80;;;14.40;78.30;;;;;;5081461;28;20195;-75
2021/04/01 05:29:05;;;;;;;87.70;52.78;;;14.30;78.50;;;;;;5081333;28;20199;-76
2021/04/01 05:31:35;;;;;;;79.90;52.03;;;14.20;78.40;;;;;;5091584;28;20562;-74
2021/04/01 05:34:02;;;;;;;86.53;53.88;;;14.20;78.20;;;;;;5082069;28;20245;-75
2021/04/01 05:36:33;;;;;;;90.28;55.50;;;14.10;78.40;;;;;;5091336;28;20297;-76
2021/04/01 05:39:00;;;;;;;91.78;54.33;;;14.20;78.90;;;;;;5091453;28;20263;-74
2021/04/01 05:41:30;;;;;;;84.03;50.15;;;14.20;78.60;;;;;;5074892;28;20202;-76
2021/04/01 05:44:05;;;;;;;85.13;53.35;;;14.10;79.00;;;;;;5084103;28;20210;-74
2021/04/01 05:46:38;;;;;;;88.63;52.70;;;14.10;79.10;;;;;;5089381;28;20233;-75
2021/04/01 05:49:18;;;;;;;99.35;55.15;;;14.10;79.30;;;;;;5091504;28;20700;-74
2021/04/01 06:01:19;;;;;;;94.38;58.10;;;14.00;80.50;;;;;;5026873;28;20214;-75
2021/04/01 06:03:54;;;;;;;89.68;56.55;;;14.10;80.80;;;;;;5071865;28;20280;-76
2021/04/01 06:06:25;;;;;;;103.15;57.90;;;14.10;80.80;;;;;;5054959;28;20272;-75
2021/04/01 06:08:55;;;;;;;98.20;55.95;;;14.10;80.80;;;;;;5091857;28;20195;-75
2021/04/01 06:11:23;;;;;;;89.07;58.03;;;14.10;81.80;;;;;;5091681;28;20195;-75
2021/04/01 06:14:07;;;;;;;97.28;58.47;;;14.10;81.90;;;;;;5087975;28;20278;-74
2021/04/01 06:16:39;;;;;;;92.00;57.95;;;14.00;82.50;;;;;;5069859;28;20233;-75
2021/04/01 06:19:09;;;;;;;101.55;56.15;;;14.00;82.90;;;;;;5087383;28;20656;-75
2021/04/01 06:21:42;;;;;;;100.95;56.88;;;14.10;82.90;;;;;;5087043;28;20228;-76
2021/04/01 06:24:25;;;;;;;89.18;54.47;;;14.20;82.50;;;;;;5078400;28;20218;-74
2021/04/01 06:26:58;;;;;;;100.18;61.65;;;14.30;82.40;;;;;;5084854;28;20222;-75
2021/04/01 06:29:27;;;;;;;99.03;57.50;;;14.60;81.70;;;;;;5079612;28;20299;-75
2021/04/01 06:31:56;;;;;;;87.60;55.72;;;15.00;80.80;;;;;;5079224;28;20202;-75
2021/04/01 06:34:35;;;;;;;97.32;58.65;;;15.20;80.10;;;;;;5077731;28;20340;-75
2021/04/01 06:37:04;;;;;;;112.75;60.80;;;15.30;80.10;;;;;;5084947;28;20621;-75
2021/04/01 06:39:31;;;;;;;101.38;60.85;;;15.40;79.90;;;;;;5091839;28;20289;-74
2021/04/01 06:42:10;;;;;;;111.75;68.05;;;15.30;80.90;;;;;;5072363;28;20268;-75
2021/04/01 06:44:53;;;;;;;101.85;64.35;;;15.10;81.90;;;;;;5074204;28;20195;-76
2021/04/01 06:47:23;;;;;;;108.35;66.07;;;15.10;82.90;;;;;;5071390;28;20520;-76
2021/04/01 06:50:05;;;;;;;118.25;67.32;;;15.10;83.80;;;;;;5085512;28;20234;-76
2021/04/01 06:52:40;;;;;;;106.75;66.43;;;15.00;84.60;;;;;;5072512;28;20206;-75
2021/04/01 06:55:19;;;;;;;103.63;63.53;;;14.80;85.70;;;;;;5064694;28;20206;-76
2021/04/01 06:58:07;;;;;;;112.80;71.22;;;14.80;86.80;;;;;;5061297;28;20226;-75
2021/04/01 07:00:51;;;;;;;114.38;74.70;;;14.90;88.10;;;;;;5087814;28;20214;-76
2021/04/01 07:03:24;;;;;;;128.48;79.60;;;15.10;88.80;;;;;;5088836;28;20209;-74
2021/04/01 07:05:55;;;;;;;121.18;77.65;;;14.90;89.80;;;;;;5082451;28;20229;-75
2021/04/01 07:08:49;;;;;;;119.25;75.95;;;14.60;90.80;;;;;;5087299;28;20636;-74
2021/04/01 07:11:29;;;;;;;114.93;75.43;;;14.50;91.70;;;;;;5088475;28;20265;-76
2021/04/01 07:14:02;;;;;;;127.97;80.40;;;14.40;92.30;;;;;;5074038;28;20232;-76
2021/04/01 07:16:41;;;;;;;127.90;82.07;;;14.40;92.70;;;;;;5083862;28;20265;-74
2021/04/01 07:44:43;;;;;;;112.15;72.13;;;14.40;96.20;;;;;;5079311;28;20301;-74
2021/04/01 07:44:52;;;;;;;94.77;62.17;;;18.00;90.60;;;;;;5081789;28;20569;-74
2021/04/01 07:47:30;;;;;;;83.30;57.13;;;19.00;87.80;;;;;;5083715;28;20453;-75
2021/04/01 07:50:16;;;;;;;81.53;54.57;;;18.80;85.00;;;;;;5089118;28;20950;-72
2021/04/01 07:52:54;;;;;;;65.70;46.37;;;18.30;87.50;;;;;;5086441;28;20441;-74
2021/04/01 07:55:24;;;;;;;67.17;46.03;;;18.80;86.80;;;;;;5089442;28;20467;-74
2021/04/01 07:58:09;;;;;;;62.87;39.07;;;19.20;86.10;;;;;;5088032;28;20485;-75
2021/04/01 08:00:43;;;;;;;51.60;37.10;;;19.80;85.20;;;;;;5084953;28;20455;-73
2021/04/01 08:06:09;;;;;;;29.70;21.87;;;19.50;84.40;;;;;;5085768;28;20478;-73
2021/04/01 08:08:38;;;;;;;34.87;23.07;;;19.20;84.60;;;;;;5091712;28;20481;-73
2021/04/01 08:11:07;;;;;;;27.57;17.00;;;18.80;84.50;;;;;;5093331;28;20527;-72
2021/04/01 08:13:38;;;;;;;20.30;12.80;;;18.90;84.30;;;;;;5080755;28;20444;-74
2021/04/01 08:16:08;;;;;;;20.03;11.07;;;18.90;84.00;;;;;;5082023;28;20472;-73
2021/04/01 08:18:38;;;;;;;21.13;9.97;;;19.00;84.20;;;;;;5082314;28;20483;-73
2021/04/01 08:21:07;;;;;;;12.40;7.37;;;19.20;82.70;;;;;;5088704;28;20463;-75
2021/04/01 08:23:35;;;;;;;14.70;8.27;;;19.70;82.50;;;;;;5089724;28;20448;-75
2021/04/01 08:26:17;;;;;;;21.43;6.67;;;20.00;80.70;;;;;;5090969;28;20942;-75
2021/04/01 08:29:13;;;;;;;20.83;7.00;;;19.90;80.70;;;;;;5077003;28;20453;-74
2021/04/01 08:32:03;;;;;;;19.70;6.63;;;19.00;81.00;;;;;;5089240;28;20440;-75
2021/04/01 08:34:41;;;;;;;13.33;5.60;;;18.80;81.90;;;;;;5091611;28;20432;-75
2021/04/01 08:37:09;;;;;;;13.77;5.60;;;18.30;83.50;;;;;;5066452;28;20818;-74
2021/04/01 08:39:37;;;;;;;13.80;6.73;;;18.00;84.10;;;;;;5084546;28;20514;-74
2021/04/01 08:42:41;;;;;;;19.03;6.00;;;18.00;84.60;;;;;;5082873;28;20444;-73
2021/04/01 08:45:46;;;;;;;24.73;6.63;;;18.10;84.90;;;;;;5077579;28;20444;-74
2021/04/01 08:48:49;;;;;;;18.90;6.27;;;18.30;84.20;;;;;;5089225;28;20923;-74
2021/04/01 08:51:43;;;;;;;35.37;10.10;;;18.10;84.40;;;;;;5087444;28;20447;-76
2021/04/01 08:54:14;;;;;;;25.70;8.73;;;17.60;85.60;;;;;;5082981;28;20446;-74
2021/04/01 08:56:50;;;;;;;19.58;7.20;;;17.40;86.60;;;;;;5088198;28;20511;-75
2021/04/01 08:59:24;;;;;;;23.70;6.13;;;16.80;87.90;;;;;;5081828;28;20224;-74
2021/04/01 09:01:54;;;;;;;15.27;6.27;;;17.00;87.90;;;;;;5062728;28;20445;-76
2021/04/01 09:04:25;;;;;;;15.03;4.50;;;17.60;87.40;;;;;;5082297;28;20445;-74
2021/04/01 09:06:54;;;;;;;14.17;5.73;;;18.10;86.10;;;;;;5086742;28;20502;-75
2021/04/01 09:09:28;;;;;;;16.40;5.63;;;18.40;84.50;;;;;;5084571;28;20506;-77
2021/04/01 09:12:05;;;;;;;19.23;6.10;;;19.50;82.90;;;;;;5092810;28;20503;-75
2021/04/01 09:14:33;;;;;;;17.00;7.03;;;20.00;80.50;;;;;;5067235;28;20472;-73
2021/04/01 09:17:07;;;;;;;12.60;6.63;;;20.70;79.30;;;;;;5085660;28;20966;-72
2021/04/01 09:19:36;;;;;;;13.70;6.50;;;20.90;77.80;;;;;;5085652;28;20836;-73
2021/04/01 09:22:14;;;;;;;16.77;8.47;;;20.70;77.80;;;;;;5084933;28;20949;-73
2021/04/01 09:24:42;;;;;;;12.67;7.43;;;20.00;78.60;;;;;;5076180;28;20448;-72
2021/04/01 09:27:12;;;;;;;17.07;10.10;;;19.80;79.90;;;;;;5090861;28;20464;-76
2021/04/01 09:29:39;;;;;;;12.90;11.30;;;19.70;79.70;;;;;;5093651;28;20448;-75
2021/04/01 09:32:09;;;;;;;16.40;11.90;;;19.20;80.60;;;;;;5086044;28;20934;-74
2021/04/01 09:34:38;;;;;;;15.77;11.97;;;18.90;82.20;;;;;;5072501;28;20450;-71
2021/04/01 09:37:14;;;;;;;10.83;9.67;;;19.10;82.40;;;;;;5090852;28;20834;-73
2021/04/01 09:39:41;;;;;;;10.80;8.03;;;19.70;81.10;;;;;;5077489;28;20550;-74
2021/04/01 09:42:10;;;;;;;20.03;7.10;;;19.80;79.70;;;;;;5078110;28;20501;-70
2021/04/01 09:44:48;;;;;;;9.77;6.07;;;20.30;77.90;;;;;;5083721;28;20927;-74
2021/04/01 09:47:24;;;;;;;7.73;5.87;;;20.80;75.80;;;;;;5092752;28;20467;-72
2021/04/01 09:49:55;;;;;;;8.07;6.53;;;21.00;75.50;;;;;;5080884;28;20513;-74
2021/04/01 09:52:27;;;;;;;10.13;6.37;;;21.10;74.70;;;;;;5088225;28;20804;-70
2021/04/01 09:54:58;;;;;;;10.70;9.07;;;21.30;75.20;;;;;;5086406;28;20439;-68
2021/04/01 09:57:41;;;;;;;15.30;10.10;;;21.50;74.40;;;;;;5085874;28;20474;-71
2021/04/01 10:00:27;;;;;;;16.00;10.70;;;21.20;72.00;;;;;;5081144;28;20441;-71
2021/04/01 10:03:05;;;;;;;12.37;9.60;;;21.00;74.20;;;;;;5088679;28;20547;-71
2021/04/01 10:05:41;;;;;;;10.50;7.73;;;20.80;73.70;;;;;;5077451;28;20496;-72
2021/04/01 10:08:10;;;;;;;12.43;9.50;;;20.60;74.30;;;;;;5088918;28;20464;-72
2021/04/01 10:10:41;;;;;;;11.97;10.87;;;20.40;74.60;;;;;;5084279;28;20444;-73
2021/04/01 10:13:19;;;;;;;16.10;12.33;;;20.10;74.80;;;;;;5086962;28;20445;-71
2021/04/01 10:15:46;;;;;;;16.10;14.27;;;19.10;76.40;;;;;;5085822;28;20530;-72
2021/04/01 10:18:18;;;;;;;18.63;12.93;;;18.40;79.10;;;;;;5082598;28;20480;-72
2021/04/01 10:20:53;;;;;;;12.27;11.03;;;18.40;80.20;;;;;;5088215;28;20483;-72
2021/04/01 10:23:21;;;;;;;16.63;10.07;;;18.60;80.10;;;;;;5073588;28;20543;-71
2021/04/01 10:25:53;;;;;;;12.03;7.60;;;18.50;79.50;;;;;;5077456;28;20897;-73
2021/04/01 10:31:15;;;;;;;6.33;5.20;;;18.40;80.30;;;;;;5077482;28;20806;-75
2021/04/01 10:34:14;;;;;;;12.03;3.60;;;18.60;78.70;;;;;;5076569;28;20436;-70
2021/04/01 10:36:43;;;;;;;12.37;5.10;;;18.30;79.70;;;;;;5079243;28;20499;-72
2021/04/01 10:39:11;;;;;;;8.27;2.80;;;18.10;80.50;;;;;;5088437;28;20484;-69
2021/04/01 10:41:49;;;;;;;11.30;3.20;;;17.90;80.30;;;;;;5074617;28;20473;-73
2021/04/01 10:44:17;;;;;;;6.63;3.53;;;18.00;80.60;;;;;;5073850;28;20469;-69
2021/04/01 10:46:50;;;;;;;10.32;3.80;;;17.20;81.90;;;;;;5085390;28;20697;-72
2021/04/01 10:49:23;;;;;;;9.25;3.88;;;16.40;84.10;;;;;;5089092;28;20198;-69
2021/04/01 10:51:52;;;;;;;9.85;3.42;;;16.20;86.00;;;;;;5085365;28;20277;-71
2021/04/01 10:54:19;;;;;;;9.52;3.30;;;16.40;85.60;;;;;;5091091;28;20199;-71
2021/04/01 10:56:54;;;;;;;8.65;3.35;;;16.80;84.20;;;;;;5088536;28;20287;-71
2021/04/01 10:59:42;;;;;;;9.77;3.83;;;16.80;83.50;;;;;;5079889;28;20275;-71
2021/04/01 11:02:15;;;;;;;8.10;4.20;;;16.50;84.20;;;;;;5083358;28;20199;-72
2021/04/01 11:04:44;;;;;;;6.82;4.03;;;16.10;85.60;;;;;;5087195;28;20191;-71
2021/04/01 11:07:11;;;;;;;6.63;3.80;;;15.50;87.60;;;;;;5081750;28;20226;-72
2021/04/01 11:09:41;;;;;;;11.35;4.18;;;15.70;87.50;;;;;;5078466;28;20195;-73
2021/04/01 11:12:17;;;;;;;4.82;3.40;;;15.70;86.90;;;;;;5084191;28;20213;-69
2021/04/01 11:14:46;;;;;;;12.45;4.43;;;15.70;87.20;;;;;;5089882;28;20540;-74
2021/04/01 11:17:16;;;;;;;6.72;3.63;;;15.90;87.80;;;;;;5089787;28;20272;-72
2021/04/01 11:19:45;;;;;;;3.50;2.60;;;16.00;85.70;;;;;;5079148;28;20222;-69
2021/04/01 11:22:13;;;;;;;7.65;3.60;;;15.60;84.80;;;;;;5074910;28;20632;-72
2021/04/01 11:24:40;;;;;;;12.90;4.30;;;15.00;86.70;;;;;;5088422;28;20577;-73
2021/04/01 11:27:08;;;;;;;8.48;3.55;;;14.70;88.30;;;;;;5090995;28;20218;-72
2021/04/01 11:29:35;;;;;;;8.95;3.40;;;14.70;88.80;;;;;;5080624;28;20230;-72
2021/04/01 11:32:17;;;;;;;8.32;2.72;;;14.60;88.90;;;;;;5090749;28;20198;-71
2021/04/01 11:34:45;;;;;;;2.85;2.55;;;14.50;89.50;;;;;;5085817;28;20212;-73
2021/04/01 11:37:17;;;;;;;10.25;3.33;;;14.50;89.30;;;;;;5079325;28;20233;-71
2021/04/01 11:39:44;;;;;;;11.30;2.97;;;14.50;87.80;;;;;;5078847;28;20229;-71
2021/04/01 11:42:11;;;;;;;4.07;2.03;;;14.40;88.70;;;;;;5081861;28;20603;-71
2021/04/01 11:44:39;;;;;;;7.20;2.92;;;14.70;87.10;;;;;;5090945;28;20202;-73
2021/04/01 11:47:20;;;;;;;5.50;2.55;;;14.70;86.40;;;;;;5079546;28;20275;-72
2021/04/01 11:49:50;;;;;;;6.60;2.85;;;14.70;87.50;;;;;;5082942;28;20543;-71
2021/04/01 11:52:19;;;;;;;5.57;2.97;;;14.60;86.20;;;;;;5081025;28;20226;-71
2021/04/01 11:54:47;;;;;;;9.43;2.88;;;14.60;86.70;;;;;;5095357;28;20212;-72
2021/04/01 11:57:21;;;;;;;6.15;2.40;;;14.40;86.00;;;;;;5083145;28;20238;-71
2021/04/01 12:00:01;;;;;;;5.00;3.20;;;14.50;86.60;;;;;;5080766;28;20214;-70
2021/04/01 12:02:29;;;;;;;5.90;2.88;;;14.20;86.30;;;;;;5087980;28;20201;-72
2021/04/01 12:05:00;;;;;;;9.82;3.00;;;14.30;86.70;;;;;;5083342;28;20252;-70
2021/04/01 12:07:30;;;;;;;6.85;2.83;;;14.50;86.70;;;;;;5083702;28;20226;-73
2021/04/01 12:09:57;;;;;;;4.80;2.15;;;14.70;86.40;;;;;;5086667;28;20199;-72
2021/04/01 12:12:32;;;;;;;11.32;2.45;;;14.80;86.40;;;;;;5078039;28;20232;-71
2021/04/01 12:15:01;;;;;;;5.28;2.33;;;14.70;85.60;;;;;;5088085;28;20221;-70
2021/04/01 12:17:32;;;;;;;7.50;4.57;;;14.90;85.80;;;;;;5089825;28;20202;-70
2021/04/01 12:20:01;;;;;;;4.68;1.95;;;15.00;85.70;;;;;;5089389;28;20232;-68
2021/04/01 12:22:35;;;;;;;10.75;3.70;;;14.90;85.60;;;;;;5088655;28;20300;-72
2021/04/01 12:25:04;;;;;;;6.38;3.72;;;14.90;85.80;;;;;;5093829;28;20235;-72
2021/04/01 12:27:32;;;;;;;9.05;4.60;;;14.90;86.10;;;;;;5087317;28;20210;-73
2021/04/01 12:30:00;;;;;;;12.23;4.28;;;14.90;87.10;;;;;;5086608;28;20222;-72
2021/04/01 12:32:32;;;;;;;11.88;6.47;;;14.90;86.80;;;;;;5092817;28;20237;-69
2021/04/01 12:35:09;;;;;;;10.02;4.10;;;14.70;87.40;;;;;;5075442;28;20264;-71
2021/04/01 12:37:36;;;;;;;19.13;6.60;;;14.50;87.80;;;;;;5088137;28;20660;-70
2021/04/01 12:40:14;;;;;;;22.23;6.15;;;14.60;88.60;;;;;;5084922;28;20201;-68
2021/04/01 12:42:41;;;;;;;5.45;3.60;;;14.50;88.30;;;;;;5082851;28;20198;-69
2021/04/01 12:45:19;;;;;;;7.47;3.15;;;14.40;87.90;;;;;;5087236;28;20235;-66
2021/04/01 12:47:46;;;;;;;9.57;3.35;;;14.30;88.90;;;;;;5093172;28;20205;-74
2021/04/01 12:50:15;;;;;;;11.77;3.60;;;14.30;89.40;;;;;;5096461;28;20225;-71
2021/04/01 12:52:47;;;;;;;5.18;2.58;;;14.30;89.20;;;;;;5088883;28;20203;-70
2021/04/01 12:55:29;;;;;;;8.43;3.15;;;14.40;88.80;;;;;;5089054;28;20530;-71
2021/04/01 12:57:56;;;;;;;7.65;3.05;;;14.50;88.30;;;;;;5087138;28;20293;-72
2021/04/01 13:00:34;;;;;;;4.22;3.20;;;14.60;87.30;;;;;;5086788;28;20219;-74
2021/04/01 13:03:01;;;;;;;4.25;2.20;;;14.40;87.50;;;;;;5085954;28;20540;-70
2021/04/01 13:05:29;;;;;;;7.63;3.35;;;14.20;87.70;;;;;;5081412;28;20229;-72
2021/04/01 13:08:09;;;;;;;5.63;2.40;;;14.30;88.60;;;;;;5082382;28;20399;-70
2021/04/01 13:10:42;;;;;;;4.63;2.83;;;14.20;87.90;;;;;;5064312;28;20222;-70
2021/04/01 13:13:11;;;;;;;8.20;3.08;;;14.00;89.00;;;;;;5083053;28;20224;-72
2021/04/01 13:15:39;;;;;;;8.65;3.67;;;13.90;89.80;;;;;;5089695;28;20221;-69
2021/04/01 13:18:06;;;;;;;5.05;2.70;;;14.10;90.20;;;;;;5084507;28;20205;-74
2021/04/01 13:20:34;;;;;;;7.93;2.60;;;14.30;89.40;;;;;;5082705;28;20195;-70
2021/04/01 13:23:22;;;;;;;8.13;3.30;;;14.40;89.00;;;;;;5084831;28;20231;-71
2021/04/01 13:25:50;;;;;;;3.53;2.60;;;14.60;89.10;;;;;;5090135;28;20251;-72
2021/04/01 13:28:16;;;;;;;9.75;2.80;;;14.70;89.20;;;;;;5088709;28;20202;-73
2021/04/01 13:30:46;;;;;;;10.40;3.38;;;14.50;89.50;;;;;;5094702;28;20205;-71
2021/04/01 13:33:20;;;;;;;4.38;2.95;;;14.50;90.40;;;;;;5083103;28;20198;-74
2021/04/01 13:35:54;;;;;;;6.45;3.10;;;14.50;90.20;;;;;;5087341;28;20221;-74
2021/04/01 13:38:23;;;;;;;4.57;2.95;;;14.50;90.30;;;;;;5070881;28;20200;-75
2021/04/01 13:40:52;;;;;;;5.55;3.40;;;14.30;90.70;;;;;;5088294;28;20203;-75